Audubon, Illinois
Current Conditions -  °F | °C
As of 8:35 PM on Sunday 23 Nov 2014 (Local Time) from KTAZ Reporting Station
Drizzle Drizzle  
Wind Chill: 50°   Ceiling: 300
Heat Index: 50°   Visibility: 3mi
Dew Point: 50°   Wind: 6mph
Humidity: 100%   Direction: 200°SSW
Pressure: 29.22"   Gusts: NA
Location:  39.3183°N, 89.2952°W
Report Text: KTAZ 240235Z AUTO 20005KT 3SM -DZ BKN003 OVC009 10/10 A2922 RMK AO2
Loading
Personal Weather Stations






























Interactive Weather Map New forecast layout! Learn more

10-Day Weather Forecast

Advertisements
Track Severe Weather on mobile